Strona główna
METAR-TAF:

METAR-TAF

Lotnisko :

Port lotniczy Ateny

Ateny, Grecja

Szerokość geograficzna: 37-56N, Długość geograficzna: 023-56E, wysokość: 94 m

Aktualna obserwacja pogody

Raport powstał 17 minut temu, godzina 01:50 UTC
Wiatr 1 kt z kierunków zmiennych
Temperatura 15°C
Wilgotność 82%
Ciśnienie 1011 hPa
Widzialność 10 km lub więcej
Mało chmury na wysokości 3000 ft

METAR: LGAV 040150Z VRB01KT 9999 FEW030 15/12 Q1011 NOSIG

czas: 05:07 (02:07 UTC)

Prognoza

Raport powstał 3 godziny i 7 minut temu, godzina 23:00 UTC
Prognoza ważna od 04 godzina 00 UTC do 04 godzina 24 UTC
Wiatr 3 kt z kierunków zmiennych
Widzialność 10 km lub więcej
Mało chmury na wysokości 2000 ft
Stopniowe zmiany
od 04 godzina 07 UTC do 04 godzina 09 UTC
Wiatr 10 kt od wschodnio-południowy wschód
Stopniowe zmiany
od 04 godzina 10 UTC do 04 godzina 12 UTC
Wiatr 12 kt od południowo-południowy zachód

TAF: LGAV 032300Z 0400/0424 VRB03KT 9999 FEW020 BECMG 0407/0409 12010KT BECMG 0410/0412 20012KT

Obserwacja i prognoza pogody dla ponad 4000 lotnisk (raport METAR i TAF).

Dostępne stacje oznaczono żółtymi i czerwonymi punktami na mapie.

Najedź kursorem aby zobaczyć nazwę stacji.

Kliknij aby zobaczyć obserwacje i prognozy pogody.

Aby zmienić mapę: kliknij na zielony przycisk z czarnym krzyżykiem, aby powiększyć; na zielony przycisk z myślnikiem, aby pomniejszyć; na zielone strzałki, aby przejść do map sąsiednich.


METAR-TAF: